Rouzerville, Pennsylvania
Current Conditions -  °F | °C
As of 2:53 AM on Thursday 23 Oct 2014 (Local Time) from KRYT Reporting Station
Scattered Clouds Scattered Clouds  
Wind Chill: 45°   Ceiling: Unl
Heat Index: 49°   Visibility: 10mi
Dew Point: 40°   Wind: 10mph
Humidity: 71%   Direction: 350°N
Pressure: 29.9"   Gusts: 21mph
Location:  39.73°N, 77.52°W
Report Text: KRYT 230653Z AUTO 35009G18KT 10SM SCT033 09/04 A2990 RMK AO2 SLP128 T00940044 $
Loading
Personal Weather Stations






























Interactive Weather Map
Tropical Storm Tracking
New forecast layout! Learn more

10-Day Weather Forecast

Advertisements
Track Severe Weather on mobile